Time;durP1;ratioP1;P1;durP2;ratioP2;P2;SDS_P1;SDS_P2;PMS_P1;PMS_P2;Temp;Humidity;BMP_temperature;BMP_pressure;BME280_temperature;BME280_humidity;BME280_pressure;Samples;Min_cycle;Max_cycle;Signal;HPM_P1;HPM_P2
2023/03/28 00:01:10;;;;;;;1.67;1.40;;;;;;;10.31;58.49;98253.59;3159499;28;20052;-71
2023/03/28 00:02:41;;;;;;;1.70;1.33;;;;;;;10.56;58.93;98314.34;3150839;28;20051;-72
2023/03/28 00:04:13;;;;;;;2.00;1.58;;;;;;;10.55;58.91;98308.31;3160816;28;20338;-72
2023/03/28 00:05:47;;;;;;;1.92;1.52;;;;;;;10.54;58.96;98311.06;3156317;28;20224;-72
2023/03/28 00:07:20;;;;;;;1.95;1.48;;;;;;;10.53;58.97;98312.81;3160282;28;20610;-71
2023/03/28 00:08:52;;;;;;;1.58;1.30;;;;;;;10.53;59.11;98317.16;3159729;28;20051;-71
2023/03/28 00:10:25;;;;;;;2.05;1.23;;;;;;;10.52;59.14;98311.13;3159887;28;20059;-71
2023/03/28 00:11:57;;;;;;;2.05;1.65;;;;;;;10.51;59.07;98313.88;3159599;28;20167;-71
2023/03/28 00:13:29;;;;;;;1.90;1.30;;;;;;;10.50;59.34;98317.38;3159994;28;20101;-71
2023/03/28 00:15:03;;;;;;;2.10;1.52;;;;;;;10.51;59.02;98321.66;3160733;28;20572;-72
2023/03/28 00:16:38;;;;;;;2.15;1.45;;;;;;;10.47;59.39;98318.44;3157046;28;20418;-71
2023/03/28 00:18:10;;;;;;;3.17;2.00;;;;;;;10.42;59.54;98310.13;3159584;28;20051;-71
2023/03/28 00:19:42;;;;;;;2.17;1.73;;;;;;;10.37;59.64;98313.00;3160758;28;20149;-72
2023/03/28 00:21:24;;;;;;;2.28;1.65;;;;;;;10.40;59.31;98317.19;3160560;28;20059;-71
2023/03/28 00:22:56;;;;;;;1.25;1.15;;;;;;;10.38;59.42;98314.72;3160456;28;20056;-71
2023/03/28 00:24:28;;;;;;;1.92;1.27;;;;;;;10.37;59.36;98320.00;3160129;28;20132;-71
2023/03/28 00:26:06;;;;;;;1.98;1.20;;;;;;;10.34;59.52;98317.59;3160935;28;20618;-72
2023/03/28 00:27:38;;;;;;;2.78;0.88;;;;;;;10.33;59.21;98327.19;3160383;28;20246;-74
2023/03/28 00:29:15;;;;;;;1.80;1.23;;;;;;;10.32;59.14;98322.06;3160531;28;20047;-71
2023/03/28 00:30:47;;;;;;;1.48;1.27;;;;;;;10.29;59.03;98330.09;3160536;28;20048;-68
2023/03/28 00:32:19;;;;;;;0.98;0.88;;;;;;;10.29;59.05;98324.88;3159840;28;20055;-71
2023/03/28 00:33:53;;;;;;;1.10;0.98;;;;;;;10.25;58.84;98332.03;3160416;28;20055;-72
2023/03/28 00:35:25;;;;;;;1.23;0.90;;;;;;;10.27;59.02;98332.81;3160049;28;20055;-72
2023/03/28 00:37:01;;;;;;;1.10;0.70;;;;;;;10.27;59.01;98338.00;3154106;28;20051;-72
2023/03/28 00:38:33;;;;;;;1.20;0.93;;;;;;;9.90;58.86;98271.97;3159417;28;20051;-72
2023/03/28 00:40:06;;;;;;;1.05;0.85;;;;;;;10.25;58.87;98329.44;3158887;28;20134;-72
2023/03/28 00:41:41;;;;;;;1.80;1.08;;;;;;;10.22;58.68;98327.03;3151627;28;20051;-72
2023/03/28 00:43:13;;;;;;;1.60;0.70;;;;;;;10.27;58.65;98334.56;3159474;28;20063;-72
2023/03/28 00:44:48;;;;;;;0.90;0.70;;;;;;;10.25;58.89;98348.47;3160136;28;20641;-72
2023/03/28 00:46:25;;;;;;;2.83;0.70;;;;;;;10.22;58.62;98345.25;3159869;28;20109;-72
2023/03/28 00:48:02;;;;;;;0.90;0.57;;;;;;;10.17;58.63;98329.09;3150424;28;20332;-72
2023/03/28 00:49:33;;;;;;;0.90;0.60;;;;;;;10.17;58.36;98340.34;3158870;28;20043;-73
2023/03/28 00:51:05;;;;;;;0.90;0.70;;;;;;;10.17;58.46;98348.16;3160077;28;20102;-72
2023/03/28 00:52:42;;;;;;;1.00;0.70;;;;;;;10.17;58.18;98355.13;3161542;28;20120;-71
2023/03/28 00:54:17;;;;;;;1.85;0.82;;;;;;;10.16;58.01;98346.50;3161629;28;20132;-72
2023/03/28 00:55:56;;;;;;;1.17;0.68;;;;;;;10.15;58.18;98359.63;3161929;28;20253;-71
2023/03/28 00:57:28;;;;;;;1.05;0.77;;;;;;;10.13;58.39;98359.69;3162449;28;20507;-72
2023/03/28 00:59:05;;;;;;;1.27;0.80;;;;;;;10.11;58.10;98356.34;3162568;28;20838;-72
2023/03/28 01:00:41;;;;;;;0.90;0.65;;;;;;;10.11;58.24;98363.34;3162056;28;20047;-72
2023/03/28 01:02:13;;;;;;;1.38;0.90;;;;;;;10.10;58.41;98354.69;3157709;28;20109;-72
2023/03/28 01:03:51;;;;;;;1.15;0.75;;;;;;;10.06;58.32;98371.47;3161829;28;20109;-73
2023/03/28 01:05:26;;;;;;;1.05;0.77;;;;;;;10.05;58.24;98366.34;3162635;28;20052;-74
2023/03/28 01:06:58;;;;;;;2.22;1.00;;;;;;;10.02;58.25;98382.97;3160850;28;20648;-72
2023/03/28 01:08:36;;;;;;;1.48;0.80;;;;;;;9.99;57.97;98383.19;3161322;28;20055;-72
2023/03/28 01:10:08;;;;;;;1.38;0.80;;;;;;;9.90;58.14;98382.00;3161499;28;20047;-72
2023/03/28 01:11:57;;;;;;;1.00;0.90;;;;;;;9.89;57.78;98385.56;3162611;28;20182;-71
2023/03/28 01:13:32;;;;;;;2.80;0.82;;;;;;;9.77;57.69;98384.56;3171558;28;20048;-72
2023/03/28 01:15:05;;;;;;;1.38;1.13;;;;;;;9.70;57.05;98406.72;3163070;28;20047;-71
2023/03/28 01:16:40;;;;;;;1.35;0.93;;;;;;;9.60;57.17;98399.59;3171147;28;20489;-71
2023/03/28 01:18:15;;;;;;;1.38;1.10;;;;;;;9.53;56.69;98405.19;3170207;28;20058;-72
2023/03/28 01:20:02;;;;;;;1.85;1.45;;;;;;;9.46;56.57;98413.44;3171832;28;20047;-74
2023/03/28 01:22:09;;;;;;;2.13;1.30;;;;;;;9.33;56.09;98419.41;3171515;28;20160;-71
2023/03/28 01:24:05;;;;;;;3.05;0.90;;;;;;;9.20;56.05;98412.47;3171124;28;20051;-72
2023/03/28 01:26:17;;;;;;;2.28;0.90;;;;;;;9.08;55.81;98420.09;3171390;28;20047;-72
2023/03/28 01:28:00;;;;;;;1.55;1.33;;;;;;;8.97;55.80;98419.09;3171288;28;20047;-71
2023/03/28 01:30:22;;;;;;;1.27;1.10;;;;;;;8.89;55.70;98417.75;3170468;28;20055;-72
2023/03/28 01:32:43;;;;;;;1.20;1.10;;;;;;;8.82;55.62;98426.03;3162920;28;20375;-72
2023/03/28 01:34:50;;;;;;;1.23;1.00;;;;;;;8.75;55.72;98406.53;3169735;28;20048;-72
2023/03/28 01:36:53;;;;;;;1.10;1.00;;;;;;;8.69;55.18;98420.72;3160210;28;20044;-73
2023/03/28 01:38:34;;;;;;;1.38;1.17;;;;;;;8.63;55.14;98423.69;3171100;28;20051;-73
2023/03/28 01:40:18;;;;;;;2.15;1.25;;;;;;;8.57;55.05;98417.09;3170257;28;20130;-73
2023/03/28 01:41:57;;;;;;;1.17;0.90;;;;;;;8.53;55.19;98410.41;3164477;28;20082;-73
2023/03/28 01:43:40;;;;;;;1.13;1.02;;;;;;;8.54;55.17;98413.84;3171096;28;20043;-73
2023/03/28 01:45:18;;;;;;;1.40;0.90;;;;;;;8.48;54.90;98414.22;3170932;28;20464;-74
2023/03/28 01:46:58;;;;;;;1.10;1.00;;;;;;;8.51;54.83;98427.00;3171062;28;20051;-73
2023/03/28 01:48:40;;;;;;;1.05;0.80;;;;;;;8.47;54.89;98435.91;3167006;28;20040;-73
2023/03/28 01:50:18;;;;;;;0.77;0.70;;;;;;;8.40;54.60;98431.06;3171357;28;20108;-73
2023/03/28 01:51:58;;;;;;;1.10;1.00;;;;;;;8.43;54.75;98458.59;3170775;28;20528;-73
2023/03/28 01:53:37;;;;;;;1.67;1.10;;;;;;;8.39;54.21;98433.72;3170992;28;20047;-73
2023/03/28 01:55:16;;;;;;;2.65;0.90;;;;;;;8.33;54.25;98449.63;3171057;28;20075;-73
2023/03/28 01:56:56;;;;;;;1.48;0.93;;;;;;;7.45;54.05;98316.38;3171164;27;20055;-73
2023/03/28 01:58:35;;;;;;;1.60;1.10;;;;;;;8.27;54.03;98457.75;3165651;28;20518;-73
2023/03/28 02:00:12;;;;;;;0.82;0.70;;;;;;;8.24;53.94;98470.91;3171245;28;20141;-73
2023/03/28 02:01:50;;;;;;;1.15;0.85;;;;;;;8.21;53.64;98479.69;3159883;28;20048;-75
2023/03/28 02:03:27;;;;;;;1.13;0.82;;;;;;;8.16;53.57;98466.13;3157815;28;20052;-73
2023/03/28 02:05:03;;;;;;;3.97;0.85;;;;;;;7.63;52.99;98407.75;3170990;28;20046;-72
2023/03/28 02:06:37;;;;;;;1.30;0.68;;;;;;;8.03;52.96;98501.47;3170866;28;20062;-74
2023/03/28 02:08:13;;;;;;;0.82;0.60;;;;;;;7.96;52.80;98481.06;3170894;28;20044;-75
2023/03/28 02:09:48;;;;;;;2.45;0.77;;;;;;;7.92;52.64;98486.50;3171005;28;20043;-72
2023/03/28 02:11:21;;;;;;;2.25;0.70;;;;;;;7.85;52.74;98492.94;3171198;28;20058;-73
2023/03/28 02:12:57;;;;;;;0.60;0.60;;;;;;;7.81;52.61;98507.84;3170498;28;20063;-74
2023/03/28 02:14:37;;;;;;;1.05;0.77;;;;;;;7.79;52.70;98483.75;3168269;28;20529;-77
2023/03/28 02:16:10;;;;;;;3.55;0.80;;;;;;;7.78;52.87;98499.38;3170781;28;20833;-75
2023/03/28 02:17:46;;;;;;;0.63;0.60;;;;;;;7.77;52.45;98497.72;3167866;28;20067;-73
2023/03/28 02:19:23;;;;;;;0.70;0.52;;;;;;;7.72;51.93;98521.28;3165972;28;20056;-71
2023/03/28 02:20:58;;;;;;;3.53;0.77;;;;;;;7.66;51.38;98508.66;3170398;28;20059;-71
2023/03/28 02:22:35;;;;;;;0.80;0.70;;;;;;;7.59;51.35;98497.78;3171150;28;20097;-74
2023/03/28 02:24:11;;;;;;;0.70;0.50;;;;;;;7.56;51.50;98508.31;3169438;28;20112;-72
2023/03/28 02:25:43;;;;;;;1.65;0.68;;;;;;;7.53;51.27;98509.31;3170636;28;20444;-75
2023/03/28 02:27:14;;;;;;;4.72;0.90;;;;;;;7.50;51.45;98519.00;3170653;28;20456;-72
2023/03/28 02:28:49;;;;;;;1.02;0.80;;;;;;;7.49;51.40;98513.00;3170491;28;20059;-72
2023/03/28 02:30:21;;;;;;;1.95;0.80;;;;;;;7.35;51.46;98507.69;3170250;28;20478;-72
2023/03/28 02:31:53;;;;;;;1.33;0.82;;;;;;;7.46;51.63;98517.50;3170765;28;20052;-72
2023/03/28 02:33:37;;;;;;;1.23;0.93;;;;;;;7.46;51.47;98533.03;3166853;28;20047;-72
2023/03/28 02:35:10;;;;;;;1.20;0.98;;;;;;;7.42;51.55;98523.75;3163000;28;20044;-72
2023/03/28 02:36:51;;;;;;;1.42;1.00;;;;;;;7.40;51.66;98541.97;3170981;28;20047;-72
2023/03/28 02:38:36;;;;;;;1.02;0.85;;;;;;;7.32;51.79;98519.97;3170070;28;20500;-72
2023/03/28 02:40:25;;;;;;;1.20;0.85;;;;;;;7.22;51.76;98527.41;3169053;28;20044;-72
2023/03/28 02:42:29;;;;;;;0.85;0.80;;;;;;;7.26;51.98;98562.56;3165106;28;20066;-71
2023/03/28 02:44:20;;;;;;;1.88;1.23;;;;;;;7.20;51.91;98537.81;3163283;28;20504;-71
2023/03/28 02:46:09;;;;;;;1.45;1.20;;;;;;;7.16;51.75;98559.63;3158716;28;20123;-70
2023/03/28 02:47:51;;;;;;;1.85;1.50;;;;;;;7.10;51.71;98541.81;3169077;27;20601;-73
2023/03/28 02:49:40;;;;;;;6.93;1.42;;;;;;;7.06;51.74;98542.84;3160080;28;20422;-73
2023/03/28 02:51:19;;;;;;;1.77;1.20;;;;;;;6.28;51.92;98427.81;3170443;28;20051;-71
2023/03/28 02:52:55;;;;;;;2.78;1.48;;;;;;;6.27;51.78;98434.72;3169940;28;20048;-71
2023/03/28 02:54:32;;;;;;;2.03;1.40;;;;;;;6.47;52.12;98474.25;3169911;28;20048;-71
2023/03/28 02:56:10;;;;;;;2.60;1.75;;;;;;;6.97;52.27;98557.09;3170396;28;20402;-72
2023/03/28 02:57:47;;;;;;;2.08;1.52;;;;;;;6.94;52.33;98567.59;3170654;28;20055;-72
2023/03/28 02:59:27;;;;;;;4.78;1.60;;;;;;;6.90;52.50;98568.69;3170396;28;20047;-72
2023/03/28 03:00:59;;;;;;;2.67;1.98;;;;;;;6.87;52.58;98571.44;3169353;28;20035;-71
2023/03/28 03:02:32;;;;;;;2.08;1.75;;;;;;;6.82;52.68;98579.41;3169981;28;20120;-71
2023/03/28 03:04:05;;;;;;;3.20;1.63;;;;;;;6.79;52.77;98574.38;3162858;28;20052;-73
2023/03/28 03:05:37;;;;;;;2.38;1.83;;;;;;;6.76;52.88;98568.53;3170404;28;20047;-71
2023/03/28 03:07:08;;;;;;;2.50;1.77;;;;;;;6.72;52.85;98582.53;3169588;28;20048;-71
2023/03/28 03:08:40;;;;;;;2.63;1.77;;;;;;;6.76;52.96;98594.41;3170313;28;20109;-72
2023/03/28 03:10:14;;;;;;;2.45;2.00;;;;;;;6.73;52.94;98579.03;3170496;28;20146;-74
2023/03/28 03:11:47;;;;;;;2.53;2.00;;;;;;;6.68;52.82;98583.59;3169424;28;20083;-71
2023/03/28 03:13:19;;;;;;;2.22;1.40;;;;;;;6.70;53.00;98579.19;3169778;28;20451;-72
2023/03/28 03:14:50;;;;;;;2.55;1.90;;;;;;;6.66;52.84;98596.59;3169592;28;20075;-73
2023/03/28 03:16:22;;;;;;;2.60;1.70;;;;;;;6.66;52.78;98582.84;3167503;28;20055;-72
2023/03/28 03:17:54;;;;;;;1.92;1.60;;;;;;;6.67;52.65;98607.78;3151561;28;20612;-71
2023/03/28 03:19:26;;;;;;;3.22;1.73;;;;;;;6.66;52.67;98595.78;3152591;28;20379;-72
2023/03/28 03:21:00;;;;;;;3.35;1.80;;;;;;;6.67;52.59;98600.03;3156011;28;20047;-73
2023/03/28 03:22:33;;;;;;;2.13;1.67;;;;;;;6.50;52.62;98573.22;3160825;28;20138;-72
2023/03/28 03:24:08;;;;;;;2.20;1.95;;;;;;;6.59;52.58;98601.22;3160335;28;20382;-72
2023/03/28 03:25:42;;;;;;;1.77;1.60;;;;;;;6.61;52.45;98607.16;3161437;28;20051;-73
2023/03/28 03:27:15;;;;;;;;;;;;;;;6.59;52.43;98602.97;3160620;28;20059;-72
2023/03/28 03:28:48;;;;;;;1.80;1.60;;;;;;;6.53;52.52;98593.75;3161059;28;19961;-72
2023/03/28 03:30:20;;;;;;;2.10;1.63;;;;;;;6.53;52.33;98611.03;3160327;28;20164;-71
2023/03/28 03:31:52;;;;;;;1.58;1.48;;;;;;;6.49;52.28;98617.25;3160606;28;20055;-73
2023/03/28 03:33:24;;;;;;;1.65;1.50;;;;;;;6.46;52.06;98601.91;3158543;28;20099;-72
2023/03/28 03:34:56;;;;;;;1.88;1.55;;;;;;;6.42;52.09;98611.56;3159353;28;20473;-73
2023/03/28 03:36:29;;;;;;;2.10;1.77;;;;;;;6.40;52.13;98620.28;3160959;28;20052;-73
2023/03/28 03:38:01;;;;;;;3.35;1.58;;;;;;;6.33;52.04;98622.31;3160113;28;20053;-72
2023/03/28 03:39:34;;;;;;;2.10;1.52;;;;;;;5.91;52.03;98553.56;3160094;28;20108;-70
2023/03/28 03:41:07;;;;;;;3.28;2.10;;;;;;;6.29;51.99;98625.94;3154862;28;20059;-71
2023/03/28 03:42:40;;;;;;;5.18;1.63;;;;;;;6.24;51.87;98625.31;3160360;28;20124;-71
2023/03/28 03:44:12;;;;;;;;;;;;;;;6.22;51.89;98625.41;3160885;28;20280;-71
2023/03/28 03:45:44;;;;;;;2.15;1.88;;;;;;;6.18;51.87;98638.53;3159871;28;20465;-72
2023/03/28 03:47:18;;;;;;;2.05;1.63;;;;;;;6.17;51.92;98637.69;3159953;28;20071;-70
2023/03/28 03:48:50;;;;;;;2.30;1.58;;;;;;;6.14;51.89;98638.66;3156282;28;20094;-71
2023/03/28 03:50:23;;;;;;;5.18;1.92;;;;;;;5.67;51.63;98571.03;3157580;28;20124;-71
2023/03/28 03:51:55;;;;;;;3.85;1.67;;;;;;;6.07;51.77;98637.28;3159760;28;20066;-71
2023/03/28 03:53:26;;;;;;;2.85;1.65;;;;;;;6.06;51.57;98658.00;3160012;28;20062;-72
2023/03/28 03:54:58;;;;;;;3.58;1.70;;;;;;;6.00;51.74;98633.28;3159883;28;20098;-71
2023/03/28 03:56:29;;;;;;;1.77;1.63;;;;;;;6.02;51.71;98638.41;3159073;28;20431;-71
2023/03/28 03:58:02;;;;;;;2.65;1.80;;;;;;;5.99;51.60;98643.72;3158143;28;20063;-71
2023/03/28 03:59:35;;;;;;;4.90;1.83;;;;;;;6.01;51.75;98601.38;3152275;28;20085;-72
2023/03/28 04:01:08;;;;;;;2.28;1.83;;;;;;;5.99;51.66;98623.88;3159695;28;20043;-72
2023/03/28 04:02:41;;;;;;;2.65;1.42;;;;;;;6.00;51.62;98635.88;3160306;28;20596;-72
2023/03/28 04:04:11;;;;;;;1.98;1.50;;;;;;;5.96;51.59;98618.84;3158078;28;20409;-71
2023/03/28 04:05:43;;;;;;;2.70;1.70;;;;;;;5.97;51.70;98648.94;3160660;28;20085;-70
2023/03/28 04:07:16;;;;;;;2.70;1.92;;;;;;;5.98;51.68;98647.22;3159589;28;20279;-70
2023/03/28 04:08:48;;;;;;;1.77;1.55;;;;;;;5.99;51.65;98649.69;3159744;28;20808;-71
2023/03/28 04:10:20;;;;;;;2.40;1.52;;;;;;;5.91;51.61;98631.09;3159944;28;20444;-71
2023/03/28 04:11:52;;;;;;;2.45;1.50;;;;;;;5.99;51.53;98639.38;3160191;28;20052;-69
2023/03/28 04:13:25;;;;;;;5.30;1.58;;;;;;;6.01;51.46;98654.81;3159640;28;20058;-72
2023/03/28 04:14:57;;;;;;;;;;;;;;;5.97;51.26;98666.19;3152413;28;20121;-70
2023/03/28 04:16:30;;;;;;;2.20;1.80;;;;;;;5.91;51.35;98673.25;3158864;28;19950;-69
2023/03/28 04:18:03;;;;;;;3.22;1.58;;;;;;;5.90;51.33;98663.00;3159122;28;20134;-74
2023/03/28 04:19:34;;;;;;;8.50;1.77;;;;;;;5.91;51.32;98683.59;3158456;28;20057;-73
2023/03/28 04:21:08;;;;;;;3.45;1.40;;;;;;;5.93;51.18;98676.66;3160040;28;20044;-74
2023/03/28 04:22:40;;;;;;;4.28;1.80;;;;;;;5.93;51.11;98673.25;3159977;28;20051;-77
2023/03/28 04:24:14;;;;;;;3.60;1.60;;;;;;;5.93;50.79;98688.75;3160769;28;20117;-77
2023/03/28 04:25:48;;;;;;;;;;;;;;;5.90;50.83;98683.69;3162077;28;20535;-72
2023/03/28 04:27:25;;;;;;;2.53;1.50;;;;;;;5.56;50.84;98643.84;3162522;28;19927;-75
2023/03/28 04:28:59;;;;;;;2.92;1.70;;;;;;;5.90;50.72;98714.69;3161749;28;20083;-76
2023/03/28 04:30:32;;;;;;;3.10;1.77;;;;;;;5.90;50.72;98718.09;3161891;28;20098;-78
2023/03/28 04:32:05;;;;;;;4.10;1.73;;;;;;;5.91;50.41;98716.34;3162572;28;20154;-76
2023/03/28 04:33:36;;;;;;;3.10;1.60;;;;;;;5.89;50.41;98711.25;3162221;28;20055;-77
2023/03/28 04:35:10;;;;;;;2.90;1.67;;;;;;;5.44;50.36;98647.78;3159496;28;20630;-72
2023/03/28 04:36:42;;;;;;;;;;;;;;;5.88;50.22;98721.66;3163367;28;20044;-73
2023/03/28 04:38:16;;;;;;;7.82;2.78;;;;;;;5.88;50.35;98721.66;3162900;28;20055;-70
2023/03/28 04:39:52;;;;;;;6.60;3.72;;;;;;;5.90;50.30;98720.69;3162636;28;20075;-67
2023/03/28 04:41:25;;;;;;;3.85;1.60;;;;;;;5.98;50.21;98730.72;3151942;28;20090;-69
2023/03/28 04:42:55;;;;;;;6.40;1.50;;;;;;;6.01;49.90;98729.75;3157273;28;20060;-67
2023/03/28 04:44:29;;;;;;;3.10;1.70;;;;;;;5.95;49.71;98732.63;3162701;28;20048;-67
2023/03/28 04:46:01;;;;;;;;;;;;;;;5.98;49.73;98746.25;3163401;28;20083;-72
2023/03/28 04:47:33;;;;;;;2.15;1.27;;;;;;;5.93;49.62;98749.00;3162742;28;19923;-73
2023/03/28 04:49:05;;;;;;;2.55;1.45;;;;;;;5.47;49.69;98670.03;3161753;28;20674;-71
2023/03/28 04:50:37;;;;;;;11.35;4.68;;;;;;;5.97;49.55;98752.28;3153908;28;20048;-69
2023/03/28 04:52:09;;;;;;;8.35;4.32;;;;;;;6.04;49.37;98753.72;3162420;28;20065;-71
2023/03/28 04:53:41;;;;;;;17.55;7.53;;;;;;;6.08;49.34;98746.66;3162597;28;20051;-66
2023/03/28 04:55:14;;;;;;;3.47;1.40;;;;;;;6.10;49.23;98755.22;3161079;28;20058;-68
2023/03/28 04:56:48;;;;;;;2.75;0.88;;;;;;;5.56;49.02;98661.03;3162131;28;20082;-66
2023/03/28 04:58:22;;;;;;;4.05;1.20;;;;;;;5.55;48.97;98664.53;3162557;28;20052;-69
2023/03/28 04:59:55;;;;;;;2.08;1.08;;;;;;;5.95;48.93;98725.69;3161869;28;20100;-67
2023/03/28 05:01:27;;;;;;;;;;;;;;;6.07;48.63;98751.00;3163015;28;20147;-69
2023/03/28 05:03:00;;;;;;;1.35;1.00;;;;;;;6.03;48.84;98741.69;3162630;28;19977;-71
2023/03/28 05:04:32;;;;;;;1.47;0.80;;;;;;;6.02;48.58;98755.53;3159799;28;20055;-73
2023/03/28 05:06:06;;;;;;;2.45;1.10;;;;;;;6.03;48.52;98771.88;3161448;28;20317;-69
2023/03/28 05:07:37;;;;;;;1.33;0.70;;;;;;;6.02;48.51;98758.09;3161192;28;20596;-68
2023/03/28 05:09:11;;;;;;;1.55;0.80;;;;;;;6.07;48.52;98769.09;3156659;28;20561;-71
2023/03/28 05:10:44;;;;;;;1.23;0.88;;;;;;;6.07;48.41;98774.28;3162542;28;20048;-71
2023/03/28 05:12:16;;;;;;;1.05;0.77;;;;;;;6.07;48.44;98773.44;3162627;28;20044;-74
2023/03/28 05:13:48;;;;;;;3.50;1.10;;;;;;;6.05;48.57;98754.56;3160838;28;20618;-72
2023/03/28 05:15:21;;;;;;;2.80;1.00;;;;;;;6.09;48.44;98777.63;3161433;28;20055;-71
2023/03/28 05:16:53;;;;;;;1.15;0.80;;;;;;;6.14;48.56;98767.91;3161440;28;20051;-72
2023/03/28 05:18:25;;;;;;;1.95;0.60;;;;;;;6.00;48.29;98754.75;3150472;28;20138;-69
2023/03/28 05:19:57;;;;;;;0.80;0.50;;;;;;;6.15;48.18;98787.72;3155984;28;20060;-70
2023/03/28 05:21:29;;;;;;;2.40;0.90;;;;;;;6.15;48.04;98795.47;3158960;28;20048;-68
2023/03/28 05:23:02;;;;;;;1.05;0.70;;;;;;;5.98;48.07;98772.09;3162157;28;20060;-68
2023/03/28 05:24:34;;;;;;;3.22;1.02;;;;;;;6.11;48.06;98799.06;3163990;28;20910;-73
2023/03/28 05:26:06;;;;;;;1.75;0.82;;;;;;;6.06;47.62;98766.56;3162603;28;20482;-71
2023/03/28 05:27:39;;;;;;;1.15;0.52;;;;;;;6.11;47.99;98796.47;3161411;28;20146;-71
2023/03/28 05:29:11;;;;;;;1.55;0.55;;;;;;;6.08;47.96;98794.03;3161829;28;20052;-70
2023/03/28 05:30:44;;;;;;;1.42;0.90;;;;;;;6.08;48.12;98806.94;3161525;28;20661;-70
2023/03/28 05:32:16;;;;;;;2.72;0.70;;;;;;;5.85;48.07;98770.88;3161300;28;20123;-70
2023/03/28 05:33:48;;;;;;;2.28;0.70;;;;;;;6.08;48.16;98814.72;3162304;28;20048;-70
2023/03/28 05:35:21;;;;;;;2.22;0.75;;;;;;;6.09;48.14;98820.72;3155889;28;20043;-71
2023/03/28 05:36:53;;;;;;;1.10;0.80;;;;;;;6.05;47.91;98801.91;3160970;28;20047;-68
2023/03/28 05:38:25;;;;;;;1.02;0.60;;;;;;;5.49;48.04;98737.94;3161970;28;20055;-71
2023/03/28 05:39:57;;;;;;;1.65;0.80;;;;;;;6.05;47.89;98835.50;3150237;28;20048;-70
2023/03/28 05:41:29;;;;;;;1.38;0.80;;;;;;;6.04;47.89;98857.09;3161207;28;20050;-70
2023/03/28 05:43:01;;;;;;;4.47;0.68;;;;;;;6.03;47.76;98836.47;3161291;28;20077;-67
2023/03/28 05:44:33;;;;;;;1.65;0.60;;;;;;;6.05;47.75;98855.34;3161379;28;20157;-68
2023/03/28 05:46:07;;;;;;;1.17;0.60;;;;;;;6.10;47.72;98840.50;3161201;28;20108;-71
2023/03/28 05:47:39;;;;;;;2.47;0.63;;;;;;;6.12;47.45;98844.72;3160826;28;20063;-71
2023/03/28 05:49:11;;;;;;;0.80;0.60;;;;;;;6.33;47.30;98849.84;3157882;28;20147;-73
2023/03/28 05:50:44;;;;;;;1.20;0.60;;;;;;;6.49;46.86;98842.28;3154456;28;20508;-75
2023/03/28 05:52:16;;;;;;;1.38;0.80;;;;;;;6.54;46.78;98864.44;3160302;28;20058;-69
2023/03/28 05:53:48;;;;;;;1.30;0.90;;;;;;;6.55;46.45;98842.84;3161499;28;20508;-74
2023/03/28 05:55:19;;;;;;;2.47;0.80;;;;;;;6.56;46.44;98831.56;3160902;28;20125;-72
2023/03/28 05:56:51;;;;;;;1.50;0.80;;;;;;;6.60;46.24;98848.66;3162131;28;20055;-73
2023/03/28 05:58:23;;;;;;;2.05;0.88;;;;;;;6.54;46.12;98841.16;3160064;28;20055;-73
2023/03/28 05:59:54;;;;;;;2.53;0.70;;;;;;;6.60;45.89;98850.41;3161193;28;20862;-77
2023/03/28 06:01:28;;;;;;;2.10;0.80;;;;;;;6.48;46.04;98820.75;3160021;28;20547;-76
2023/03/28 06:03:00;;;;;;;5.78;1.85;;;;;;;6.59;45.84;98834.03;3156754;28;20040;-70
2023/03/28 06:04:32;;;;;;;2.58;1.30;;;;;;;6.72;45.71;98846.44;3159789;28;20112;-68
2023/03/28 06:06:04;;;;;;;15.77;7.80;;;;;;;6.67;45.46;98833.69;3158242;28;20055;-68
2023/03/28 06:07:37;;;;;;;7.55;2.45;;;;;;;6.69;45.37;98818.94;3159755;28;20051;-72
2023/03/28 06:09:09;;;;;;;1.35;0.90;;;;;;;6.75;45.37;98843.72;3160013;28;20448;-71
2023/03/28 06:10:41;;;;;;;1.27;0.82;;;;;;;6.86;45.29;98832.88;3160946;28;20048;-71
2023/03/28 06:12:13;;;;;;;2.60;1.10;;;;;;;6.82;45.00;98822.66;3159993;28;20058;-70
2023/03/28 06:13:46;;;;;;;3.10;1.10;;;;;;;6.88;45.20;98833.63;3161472;28;20067;-71
2023/03/28 06:15:17;;;;;;;2.58;0.70;;;;;;;6.76;44.97;98814.34;3160667;28;20108;-71
2023/03/28 06:16:51;;;;;;;1.73;0.90;;;;;;;6.89;44.88;98799.94;3159562;28;20588;-75
2023/03/28 06:18:22;;;;;;;;;;;;;;;6.98;44.72;98830.56;3160833;28;20140;-74
2023/03/28 06:19:54;;;;;;;1.33;0.60;;;;;;;6.94;44.97;98831.59;3160408;28;20354;-74
2023/03/28 06:21:26;;;;;;;2.00;0.55;;;;;;;6.93;44.80;98822.16;3159870;28;20052;-77
2023/03/28 06:22:58;;;;;;;1.42;0.63;;;;;;;6.83;45.07;98797.59;3160559;28;20059;-73
2023/03/28 06:24:30;;;;;;;2.78;0.85;;;;;;;7.04;45.15;98824.28;3160078;27;20094;-69
2023/03/28 06:26:03;;;;;;;1.63;0.90;;;;;;;7.03;45.07;98841.53;3159989;28;20051;-71
2023/03/28 06:27:36;;;;;;;2.25;0.82;;;;;;;6.83;45.06;98800.19;3159528;28;20055;-73
2023/03/28 06:29:08;;;;;;;2.05;0.65;;;;;;;7.02;45.20;98821.75;3158986;28;20044;-69
2023/03/28 06:30:40;;;;;;;2.03;0.95;;;;;;;7.05;45.15;98824.19;3158970;28;20059;-69
2023/03/28 06:32:14;;;;;;;5.65;1.48;;;;;;;7.10;45.18;98826.59;3160038;28;20048;-70
2023/03/28 06:33:46;;;;;;;1.55;0.98;;;;;;;7.18;44.81;98821.03;3160463;28;20051;-68
2023/03/28 06:35:18;;;;;;;1.88;0.95;;;;;;;7.26;44.53;98834.47;3160784;28;20055;-67
2023/03/28 06:36:50;;;;;;;2.72;0.82;;;;;;;7.23;44.27;98838.03;3160593;28;20059;-70
2023/03/28 06:38:22;;;;;;;5.57;1.13;;;;;;;7.26;43.89;98840.47;3158015;28;20133;-68
2023/03/28 06:39:54;;;;;;;3.00;1.00;;;;;;;7.43;43.76;98862.16;3159673;28;20051;-73
2023/03/28 06:41:26;;;;;;;6.63;1.50;;;;;;;7.59;43.70;98860.50;3151352;28;20063;-68
2023/03/28 06:42:58;;;;;;;4.07;1.30;;;;;;;7.78;42.94;98878.63;3160727;28;20061;-68
2023/03/28 06:44:30;;;;;;;6.20;2.08;;;;;;;8.02;42.71;98858.44;3159948;28;20062;-67
2023/03/28 06:46:02;;;;;;;10.77;1.60;;;;;;;8.34;41.92;98866.31;3159799;28;20159;-68
2023/03/28 06:47:36;;;;;;;10.00;1.98;;;;;;;8.68;40.97;98862.88;3159702;28;20055;-72
2023/03/28 06:49:08;;;;;;;;;;;;;;;8.88;40.42;98860.06;3158834;28;20056;-72
2023/03/28 06:50:39;;;;;;;7.72;2.22;;;;;;;9.05;40.05;98879.06;3155715;28;19977;-72
2023/03/28 06:52:11;;;;;;;4.28;1.92;;;;;;;9.33;39.11;98868.03;3161245;28;20085;-71
2023/03/28 06:53:44;;;;;;;4.63;1.80;;;;;;;9.47;38.48;98885.47;3159894;28;20051;-68
2023/03/28 06:55:16;;;;;;;5.00;2.10;;;;;;;9.46;38.12;98889.81;3159285;28;20054;-70
2023/03/28 06:56:48;;;;;;;3.45;1.73;;;;;;;9.49;38.18;98888.81;3158980;28;20121;-69
2023/03/28 06:58:21;;;;;;;3.47;2.10;;;;;;;9.50;38.24;98898.31;3160049;28;20054;-73
2023/03/28 06:59:53;;;;;;;8.77;2.00;;;;;;;9.65;38.19;98888.81;3158236;28;20066;-77
2023/03/28 07:01:25;;;;;;;7.40;1.63;;;;;;;9.88;37.74;98908.31;3160440;28;20058;-76
2023/03/28 07:02:59;;;;;;;10.65;1.83;;;;;;;9.97;37.54;98900.00;3147375;28;20389;-69
2023/03/28 07:04:31;;;;;;;8.57;2.10;;;;;;;10.02;37.44;98917.00;3157748;28;20058;-69
2023/03/28 07:06:07;;;;;;;6.25;1.60;;;;;;;10.03;37.34;98897.88;3156580;28;20498;-73
2023/03/28 07:07:39;;;;;;;4.15;2.17;;;;;;;10.25;37.18;98920.06;3158087;28;20478;-69
2023/03/28 07:09:11;;;;;;;7.10;1.77;;;;;;;10.27;37.05;98912.22;3154288;28;20047;-74
2023/03/28 07:11:14;;;;;;;4.68;1.45;;;;;;;10.30;36.87;98904.22;3155360;28;20051;-81
2023/03/28 07:12:46;;;;;;;5.82;1.58;;;;;;;10.29;37.06;98911.16;3154473;28;20542;-70
2023/03/28 07:14:19;;;;;;;3.65;1.90;;;;;;;10.31;36.88;98935.34;3152365;28;20071;-77
2023/03/28 07:15:59;;;;;;;4.10;1.83;;;;;;;10.42;37.04;98904.34;3155830;28;20059;-71
2023/03/28 07:17:32;;;;;;;5.72;1.60;;;;;;;10.44;36.85;98905.09;3156323;27;20435;-77
2023/03/28 07:19:05;;;;;;;2.20;1.25;;;;;;;10.45;36.71;98903.31;3156513;27;20051;-70
2023/03/28 07:20:38;;;;;;;;;;;;;;;10.31;36.58;98895.47;3165819;27;20047;-78
2023/03/28 07:22:10;;;;;;;4.18;1.60;;;;;;;10.19;36.72;98921.25;3167571;28;19920;-72
2023/03/28 07:23:43;;;;;;;4.20;2.00;;;;;;;10.18;37.24;98909.19;3166634;28;20051;-69
2023/03/28 07:25:15;;;;;;;6.82;1.65;;;;;;;10.09;36.81;98904.50;3164317;28;20534;-77
2023/03/28 07:26:47;;;;;;;3.72;2.00;;;;;;;9.96;37.20;98916.53;3162881;28;20051;-76
2023/03/28 07:28:20;;;;;;;3.75;1.90;;;;;;;9.88;37.03;98901.38;3168801;28;20555;-77
2023/03/28 07:29:51;;;;;;;3.20;1.77;;;;;;;9.88;37.21;98908.31;3164963;28;20101;-76
2023/03/28 07:31:24;;;;;;;4.93;1.80;;;;;;;9.80;37.04;98907.00;3165625;28;20534;-75
2023/03/28 07:32:56;;;;;;;8.70;2.00;;;;;;;9.73;37.26;98913.47;3166847;28;20133;-75